Time;durP1;ratioP1;P1;durP2;ratioP2;P2;SDS_P1;SDS_P2;PMS_P1;PMS_P2;Temp;Humidity;BMP_temperature;BMP_pressure;BME280_temperature;BME280_humidity;BME280_pressure;Samples;Min_cycle;Max_cycle;Signal;HPM_P1;HPM_P2
2023/09/18 00:02:04;;;;;;;;;;;;;;;22.42;53.84;100080.28;5074495;28;19927;-77
2023/09/18 00:04:29;;;;;;;;;;;;;;;22.39;54.12;100073.50;5074531;28;19919;-76
2023/09/18 00:06:54;;;;;;;;;;;;;;;22.42;53.42;100070.34;5074774;28;19912;-77
2023/09/18 00:09:20;;;;;;;;;;;;;;;22.45;53.59;100059.09;5074714;28;19955;-77
2023/09/18 00:11:45;;;;;;;;;;;;;;;22.44;54.07;100062.84;5074505;28;20380;-77
2023/09/18 00:14:10;;;;;;;;;;;;;;;22.42;53.63;100062.25;5074379;28;19923;-77
2023/09/18 00:16:36;;;;;;;;;;;;;;;22.40;53.84;100058.19;5074476;28;20309;-76
2023/09/18 00:19:02;;;;;;;;;;;;;;;22.39;54.16;100060.06;5056116;28;19926;-75
2023/09/18 00:21:30;;;;;;;;;;;;;;;22.39;53.99;100059.25;5074064;28;19969;-77
2023/09/18 00:23:56;;;;;;;;;;;;;;;22.39;54.22;100052.00;5074374;28;19912;-77
2023/09/18 00:26:21;;;;;;;;;;;;;;;22.40;53.84;100050.94;5056134;28;20313;-77
2023/09/18 00:28:47;;;;;;;;;;;;;;;22.40;53.98;100044.72;5056111;28;19916;-76
2023/09/18 00:31:12;;;;;;;;;;;;;;;22.40;53.92;100053.63;5073691;28;19919;-75
2023/09/18 00:33:38;;;;;;;;;;;;;;;22.41;53.46;100054.44;5073362;28;20008;-75
2023/09/18 00:36:03;;;;;;;;;;;;;;;22.39;53.94;100051.16;5056025;28;19966;-74
2023/09/18 00:38:29;;;;;;;;;;;;;;;22.40;53.54;100052.81;5074144;28;20379;-77
2023/09/18 00:40:54;;;;;;;;;;;;;;;22.34;53.69;100045.69;5073888;28;19956;-77
2023/09/18 00:43:20;;;;;;;;;;;;;;;22.30;54.00;100053.44;5073707;28;19991;-77
2023/09/18 00:45:47;;;;;;;;;;;;;;;22.27;54.50;100053.06;5074062;28;19904;-77
2023/09/18 00:48:14;;;;;;;;;;;;;;;22.26;54.69;100049.56;5073622;28;19919;-76
2023/09/18 00:50:39;;;;;;;;;;;;;;;22.29;54.39;100053.66;5073304;28;19959;-77
2023/09/18 00:53:07;;;;;;;;;;;;;;;22.27;54.16;100048.50;5073468;28;19948;-77
2023/09/18 00:55:32;;;;;;;;;;;;;;;22.27;54.08;100053.91;5055987;28;19982;-77
2023/09/18 00:57:58;;;;;;;;;;;;;;;22.26;54.27;100048.75;5055557;28;19917;-76
2023/09/18 01:00:23;;;;;;;;;;;;;;;22.25;53.81;100047.94;5073786;28;19912;-77
2023/09/18 01:02:49;;;;;;;;;;;;;;;22.20;54.27;100045.16;5055258;28;19920;-75
2023/09/18 01:05:16;;;;;;;;;;;;;;;22.20;53.92;100045.97;5073545;28;19970;-76
2023/09/18 01:07:41;;;;;;;;;;;;;;;22.23;54.14;100041.16;5073455;28;20321;-76
2023/09/18 01:10:08;;;;;;;;;;;;;;;22.25;53.67;100047.13;5073296;28;19912;-76
2023/09/18 01:12:39;;;;;;;;;;;;;;;22.25;54.15;100041.75;5073027;28;19912;-76
2023/09/18 01:15:13;;;;;;;;;;;;;;;22.22;53.87;100032.28;5072577;28;19916;-77
2023/09/18 01:17:38;;;;;;;;;;;;;;;22.23;54.14;100035.78;5072435;28;20023;-77
2023/09/18 01:20:05;;;;;;;;;;;;;;;22.20;53.77;100029.84;5072403;28;20404;-77
2023/09/18 01:22:31;;;;;;;;;;;;;;;22.19;53.77;100030.09;5072618;28;19916;-75
2023/09/18 01:24:56;;;;;;;;;;;;;;;22.15;54.29;100032.44;5072603;28;20313;-76
2023/09/18 01:27:21;;;;;;;;;;;;;;;22.16;54.45;100028.69;5072394;28;19969;-77
2023/09/18 01:29:47;;;;;;;;;;;;;;;22.19;53.71;100027.41;5054453;28;20401;-75
2023/09/18 01:32:13;;;;;;;;;;;;;;;22.15;53.87;100027.06;5054304;28;19920;-76
2023/09/18 01:34:49;;;;;;;;;;;;;;;22.14;54.26;100024.63;5054180;28;20420;-76
2023/09/18 01:37:26;;;;;;;;;;;;;;;22.14;53.72;100024.63;5054329;28;19920;-76
2023/09/18 01:39:53;;;;;;;;;;;;;;;22.12;53.78;100027.53;5072254;28;20451;-77
2023/09/18 01:42:18;;;;;;;;;;;;;;;22.13;53.76;100031.88;5072085;28;20400;-76
2023/09/18 01:44:44;;;;;;;;;;;;;;;22.13;53.52;100026.50;5053310;28;19912;-76
2023/09/18 01:47:12;;;;;;;;;;;;;;;22.09;53.88;100030.72;5072160;28;20297;-76
2023/09/18 01:49:38;;;;;;;;;;;;;;;22.08;54.00;100029.09;5072158;28;20389;-76
2023/09/18 01:52:05;;;;;;;;;;;;;;;22.08;53.88;100034.47;5072024;28;20311;-76
2023/09/18 01:54:30;;;;;;;;;;;;;;;22.02;54.65;100038.09;5071760;28;20403;-76
2023/09/18 01:56:56;;;;;;;;;;;;;;;21.99;54.19;100035.06;5054184;28;20003;-75
2023/09/18 01:59:22;;;;;;;;;;;;;;;21.97;54.83;100037.19;5054946;28;19932;-76
2023/09/18 02:01:47;;;;;;;;;;;;;;;21.97;54.14;100035.31;5072652;28;19920;-76
2023/09/18 02:04:12;;;;;;;;;;;;;;;21.99;54.53;100032.38;5072572;28;19919;-76
2023/09/18 02:06:37;;;;;;;;;;;;;;;21.98;54.53;100036.94;5072394;28;19916;-76
2023/09/18 02:09:08;;;;;;;;;;;;;;;21.97;54.61;100029.94;5072248;28;20464;-75
2023/09/18 02:11:33;;;;;;;;;;;;;;;21.98;54.38;100030.75;5072161;28;19904;-75
2023/09/18 02:13:58;;;;;;;;;;;;;;;21.95;54.66;100040.09;5072217;28;19923;-75
2023/09/18 02:16:24;;;;;;;;;;;;;;;21.89;54.69;100041.06;5072322;28;19919;-75
2023/09/18 02:18:49;;;;;;;;;;;;;;;21.85;54.72;100029.97;5073071;28;19912;-75
2023/09/18 02:21:21;;;;;;;;;;;;;;;21.83;55.13;100029.41;5058888;28;20362;-77
2023/09/18 02:23:52;;;;;;;;;;;;;;;21.78;55.38;100031.19;5073085;28;19908;-74
2023/09/18 02:26:18;;;;;;;;;;;;;;;21.77;55.25;100026.84;5071824;28;20389;-76
2023/09/18 02:28:43;;;;;;;;;;;;;;;21.76;55.03;100023.34;5072467;28;20034;-76
2023/09/18 02:31:09;;;;;;;;;;;;;;;21.80;54.61;100029.88;5072065;28;19919;-76
2023/09/18 02:33:34;;;;;;;;;;;;;;;21.80;54.44;100031.75;5071774;28;19992;-73
2023/09/18 02:36:00;;;;;;;;;;;;;;;21.76;55.07;100039.47;5071827;28;20332;-74
2023/09/18 02:38:26;;;;;;;;;;;;;;;21.76;54.39;100041.34;5072887;28;19913;-76
2023/09/18 02:40:53;;;;;;;;;;;;;;;21.72;55.15;100040.19;5074192;28;19912;-77
2023/09/18 02:43:18;;;;;;;;;;;;;;;21.68;54.98;100042.53;5079608;28;19920;-76
2023/09/18 02:45:44;;;;;;;;;;;;;;;21.63;55.65;100047.00;5071881;28;19912;-77
2023/09/18 02:48:09;;;;;;;;;;;;;;;21.65;54.67;100050.25;5072355;28;20429;-76
2023/09/18 02:50:35;;;;;;;;;;;;;;;21.64;55.23;100040.56;5054064;28;19919;-77
2023/09/18 02:53:00;;;;;;;;;;;;;;;21.62;54.81;100046.19;5072149;28;20382;-77
2023/09/18 02:55:26;;;;;;;;;;;;;;;21.60;55.18;100045.59;5073128;28;19971;-77
2023/09/18 02:57:51;;;;;;;;;;;;;;;21.60;55.33;100042.91;5076194;28;19912;-77
2023/09/18 03:00:17;;;;;;;;;;;;;;;21.60;54.72;100039.41;5058256;28;19912;-77
2023/09/18 03:02:42;;;;;;;;;;;;;;;21.58;55.58;100036.16;5075868;28;20469;-77
2023/09/18 03:05:08;;;;;;;;;;;;;;;21.55;55.49;100040.09;5058102;28;19913;-77
2023/09/18 03:07:33;;;;;;;;;;;;;;;21.55;55.43;100046.31;5057960;28;19913;-77
2023/09/18 03:09:59;;;;;;;;;;;;;;;21.54;55.70;100046.53;5075859;28;19935;-76
2023/09/18 03:12:24;;;;;;;;;;;;;;;21.51;55.11;100039.75;5075481;28;19966;-78
2023/09/18 03:14:49;;;;;;;;;;;;;;;21.51;55.26;100042.44;5074951;28;20365;-77
2023/09/18 03:17:15;;;;;;;;;;;;;;;21.48;55.88;100047.47;5057050;28;19965;-77
2023/09/18 03:19:40;;;;;;;;;;;;;;;21.46;56.24;100045.03;5074913;28;20004;-76
2023/09/18 03:22:05;;;;;;;;;;;;;;;21.40;56.58;100047.84;5074765;28;20401;-75
2023/09/18 03:24:31;;;;;;;;;;;;;;;21.36;55.98;100046.69;5074741;28;19912;-76
2023/09/18 03:26:56;;;;;;;;;;;;;;;21.34;55.85;100038.84;5074744;28;19913;-75
2023/09/18 03:29:21;;;;;;;;;;;;;;;21.36;56.08;100044.81;5074877;28;20003;-75
2023/09/18 03:31:46;;;;;;;;;;;;;;;21.34;56.20;100052.28;5074734;28;20389;-76
2023/09/18 03:34:12;;;;;;;;;;;;;;;21.32;55.95;100043.66;5056726;28;20458;-78
2023/09/18 03:36:38;;;;;;;;;;;;;;;21.31;55.88;100055.44;5074758;28;19955;-75
2023/09/18 03:39:04;;;;;;;;;;;;;;;21.33;55.84;100049.84;5074457;28;19913;-75
2023/09/18 03:41:33;;;;;;;;;;;;;;;21.33;55.70;100050.66;5074474;28;19961;-75
2023/09/18 03:43:59;;;;;;;;;;;;;;;21.27;56.08;100045.41;5074880;28;20317;-75
2023/09/18 03:46:24;;;;;;;;;;;;;;;21.21;56.55;100045.25;5075009;28;19943;-75
2023/09/18 03:48:49;;;;;;;;;;;;;;;21.23;55.60;100042.38;5075077;28;19919;-77
2023/09/18 03:51:15;;;;;;;;;;;;;;;21.25;56.53;100048.31;5075015;28;20430;-76
2023/09/18 03:53:41;;;;;;;;;;;;;;;21.28;55.96;100052.41;5075102;28;19913;-77
2023/09/18 03:56:06;;;;;;;;;;;;;;;21.30;56.00;100050.31;5057225;28;19912;-76
2023/09/18 03:58:31;;;;;;;;;;;;;;;21.26;56.39;100052.66;5073989;28;19913;-75
2023/09/18 04:00:57;;;;;;;;;;;;;;;21.26;55.56;100052.66;5056033;28;19943;-75
2023/09/18 04:03:22;;;;;;;;;;;;;;;21.25;56.32;100059.88;5074455;28;19924;-76
2023/09/18 04:05:47;;;;;;;;;;;;;;;21.25;56.55;100069.81;5074252;28;19923;-75
2023/09/18 04:08:14;;;;;;;;;;;;;;;21.27;55.85;100066.91;5054637;28;21735;-77
2023/09/18 04:10:40;;;;;;;;;;;;;;;21.23;56.28;100067.38;5074000;28;19919;-76
2023/09/18 04:13:05;;;;;;;;;;;;;;;21.19;56.30;100073.41;5074566;28;19952;-77
2023/09/18 04:15:30;;;;;;;;;;;;;;;21.17;56.19;100065.59;5074276;28;19971;-76
2023/09/18 04:17:56;;;;;;;;;;;;;;;21.17;55.68;100064.78;5074811;28;19912;-76
2023/09/18 04:20:21;;;;;;;;;;;;;;;21.17;55.81;100059.41;5074826;28;20384;-76
2023/09/18 04:22:50;;;;;;;;;;;;;;;21.15;55.98;100064.19;5056329;28;19912;-77
2023/09/18 04:25:16;;;;;;;;;;;;;;;21.12;56.23;100062.78;5056092;28;20376;-76
2023/09/18 04:27:41;;;;;;;;;;;;;;;21.15;55.83;100070.38;5074196;28;19913;-76
2023/09/18 04:30:09;;;;;;;;;;;;;;;21.12;55.94;100070.84;5074080;28;20004;-76
2023/09/18 04:32:34;;;;;;;;;;;;;;;21.08;56.61;100075.03;5056260;28;19912;-77
2023/09/18 04:34:59;;;;;;;;;;;;;;;21.05;56.41;100062.09;5073782;28;19923;-76
2023/09/18 04:37:24;;;;;;;;;;;;;;;21.04;55.78;100057.78;5073858;28;20297;-76
2023/09/18 04:39:50;;;;;;;;;;;;;;;21.07;55.92;100062.66;5074365;28;19959;-75
2023/09/18 04:42:15;;;;;;;;;;;;;;;21.09;56.28;100065.13;5056186;28;19916;-76
2023/09/18 04:44:41;;;;;;;;;;;;;;;21.01;56.59;100068.16;5074029;28;19912;-76
2023/09/18 04:47:07;;;;;;;;;;;;;;;21.04;55.95;100062.31;5073839;28;19912;-76
2023/09/18 04:49:33;;;;;;;;;;;;;;;21.01;56.06;100071.66;5055792;28;20431;-76
2023/09/18 04:51:58;;;;;;;;;;;;;;;20.93;56.49;100066.63;5073751;28;19951;-75
2023/09/18 04:54:23;;;;;;;;;;;;;;;21.00;56.07;100070.03;5073575;28;19917;-76
2023/09/18 04:56:48;;;;;;;;;;;;;;;21.07;56.25;100067.22;5073660;28;19919;-76
2023/09/18 04:59:14;;;;;;;;;;;;;;;21.07;56.52;100059.16;5072932;28;19969;-77
2023/09/18 05:01:39;;;;;;;;;;;;;;;21.06;55.98;100060.22;5072707;28;19977;-77
2023/09/18 05:04:05;;;;;;;;;;;;;;;21.08;55.88;100064.31;5072837;28;19916;-78
2023/09/18 05:06:30;;;;;;;;;;;;;;;21.11;56.16;100068.38;5072838;28;19970;-75
2023/09/18 05:08:55;;;;;;;;;;;;;;;21.08;55.77;100068.84;5054995;28;19927;-75
2023/09/18 05:11:21;;;;;;;;;;;;;;;21.09;56.40;100067.81;5073037;28;20393;-75
2023/09/18 05:13:46;;;;;;;;;;;;;;;21.12;56.26;100067.34;5055053;28;20411;-75
2023/09/18 05:16:12;;;;;;;;;;;;;;;21.08;56.49;100069.69;5073075;28;19912;-74
2023/09/18 05:18:37;;;;;;;;;;;;;;;21.05;55.92;100070.16;5073200;28;19987;-76
2023/09/18 05:21:04;;;;;;;;;;;;;;;21.06;56.27;100063.72;5072605;28;19912;-76
2023/09/18 05:23:30;;;;;;;;;;;;;;;21.11;56.13;100068.38;5072628;28;20401;-77
2023/09/18 05:25:55;;;;;;;;;;;;;;;21.14;55.91;100070.59;5072405;28;19916;-76
2023/09/18 05:28:21;;;;;;;;;;;;;;;21.13;56.12;100071.66;5072518;28;19912;-76
2023/09/18 05:30:46;;;;;;;;;;;;;;;21.17;56.16;100070.97;5072754;28;19919;-75
2023/09/18 05:33:12;;;;;;;;;;;;;;;21.22;56.38;100071.09;5072756;28;19912;-78
2023/09/18 05:35:42;;;;;;;;;;;;;;;21.25;55.97;100073.31;5083766;28;20362;-76
2023/09/18 05:38:08;;;;;;;;;;;;;;;21.31;55.59;100073.44;5092543;28;20065;-77
2023/09/18 05:40:34;;;;;;;;;;;;;;;21.36;55.89;100078.91;5091957;28;19913;-77
2023/09/18 05:42:59;;;;;;;;;;;;;;;21.41;55.37;100085.22;5092298;28;19969;-76
2023/09/18 05:45:26;;;;;;;;;;;;;;;21.47;55.35;100081.59;5092344;28;19912;-77
2023/09/18 05:47:53;;;;;;;;;;;;;;;21.52;55.39;100080.88;5092228;28;19920;-75
2023/09/18 05:50:18;;;;;;;;;;;;;;;21.59;55.05;100080.78;5092150;28;19938;-76
2023/09/18 05:52:44;;;;;;;;;;;;;;;21.64;55.41;100080.88;5092270;28;20389;-74
2023/09/18 05:55:10;;;;;;;;;;;;;;;21.64;54.76;100078.19;5092166;28;19920;-74
2023/09/18 05:57:35;;;;;;;;;;;;;;;21.68;55.26;100082.03;5092242;28;19962;-77
2023/09/18 06:00:01;;;;;;;;;;;;;;;21.73;55.06;100082.13;5092362;28;19908;-77
2023/09/18 06:02:26;;;;;;;;;;;;;;;21.77;55.03;100076.06;5091936;28;20342;-77
2023/09/18 06:04:56;;;;;;;;;;;;;;;21.80;54.96;100072.06;5091886;28;19961;-75
2023/09/18 06:07:22;;;;;;;;;;;;;;;21.86;54.31;100081.88;5092101;28;19912;-74
2023/09/18 06:09:48;;;;;;;;;;;;;;;21.86;54.36;100081.88;5090547;28;20002;-74
2023/09/18 06:12:14;;;;;;;;;;;;;;;21.92;54.25;100080.91;5091400;28;19916;-76
2023/09/18 06:14:39;;;;;;;;;;;;;;;21.97;54.24;100090.94;5090892;28;19955;-78
2023/09/18 06:17:05;;;;;;;;;;;;;;;22.02;53.87;100089.19;5091825;28;19912;-77
2023/09/18 06:19:31;;;;;;;;;;;;;;;22.05;53.81;100091.41;5091906;28;19949;-77
2023/09/18 06:21:56;;;;;;;;;;;;;;;22.11;53.50;100086.94;5073503;28;19999;-77
2023/09/18 06:24:21;;;;;;;;;;;;;;;22.10;53.80;100091.50;5091513;28;19916;-76
2023/09/18 06:26:47;;;;;;;;;;;;;;;22.16;53.79;100087.03;5091332;28;19919;-78
2023/09/18 06:29:13;;;;;;;;;;;;;;;22.18;53.95;100095.69;5090957;28;20061;-76
2023/09/18 06:31:38;;;;;;;;;;;;;;;22.30;53.07;100099.19;5090903;28;19913;-76
2023/09/18 06:34:03;;;;;;;;;;;;;;;22.30;52.99;100093.78;5090735;28;19921;-77
2023/09/18 06:36:29;;;;;;;;;;;;;;;22.33;53.49;100100.56;5091446;28;19916;-75
2023/09/18 06:38:54;;;;;;;;;;;;;;;22.40;53.09;100088.59;5091655;28;19951;-77
2023/09/18 06:41:19;;;;;;;;;;;;;;;22.43;53.17;100092.69;5091345;28;19973;-75
2023/09/18 06:43:44;;;;;;;;;;;;;;;22.47;52.75;100094.63;5091584;28;19986;-75
2023/09/18 06:46:10;;;;;;;;;;;;;;;22.46;52.86;100092.19;5091607;28;19912;-76
2023/09/18 06:48:35;;;;;;;;;;;;;;;22.50;52.59;100098.72;5091612;28;19912;-77
2023/09/18 06:51:00;;;;;;;;;;;;;;;22.55;53.16;100098.00;5090720;28;19933;-76
2023/09/18 06:53:27;;;;;;;;;;;;;;;22.56;52.84;100097.75;5091059;28;20381;-76
2023/09/18 06:55:53;;;;;;;;;;;;;;;22.61;52.89;100095.16;5089242;28;19920;-77
2023/09/18 06:58:18;;;;;;;;;;;;;;;22.67;52.48;100098.75;5090039;28;20396;-76
2023/09/18 07:00:43;;;;;;;;;;;;;;;22.69;52.67;100099.31;5086797;28;19916;-74
2023/09/18 07:03:09;;;;;;;;;;;;;;;22.78;52.37;100100.53;5088933;28;19920;-75
2023/09/18 07:05:34;;;;;;;;;;;;;;;22.82;52.11;100090.94;5091126;28;20952;-77
2023/09/18 07:08:00;;;;;;;;;;;;;;;22.88;51.84;100095.34;5073087;28;20300;-76
2023/09/18 07:10:25;;;;;;;;;;;;;;;22.94;52.35;100096.25;5090744;28;19951;-77
2023/09/18 07:12:50;;;;;;;;;;;;;;;23.02;51.66;100096.66;5072953;28;19929;-75
2023/09/18 07:15:17;;;;;;;;;;;;;;;23.07;51.32;100090.56;5090883;28;20010;-76
2023/09/18 07:17:42;;;;;;;;;;;;;;;23.11;51.59;100099.78;5066153;28;20337;-77
2023/09/18 07:20:13;;;;;;;;;;;;;;;23.14;50.77;100091.19;5088479;28;19916;-74
2023/09/18 07:22:39;;;;;;;;;;;;;;;23.17;51.16;100104.16;5088578;28;20388;-74
2023/09/18 07:25:04;;;;;;;;;;;;;;;23.21;50.92;100113.38;5091396;28;19966;-76
2023/09/18 07:27:29;;;;;;;;;;;;;;;23.29;50.69;100102.19;5091543;28;19916;-76
2023/09/18 07:29:55;;;;;;;;;;;;;;;23.34;50.46;100094.19;5091099;28;19920;-74
2023/09/18 07:32:20;;;;;;;;;;;;;;;23.43;50.51;100102.66;5088086;28;20404;-78
2023/09/18 07:34:47;;;;;;;;;;;;;;;23.42;50.32;100101.84;5090008;28;20340;-76
2023/09/18 07:37:12;;;;;;;;;;;;;;;23.36;49.49;100099.31;5072274;28;19920;-76
2023/09/18 07:39:39;;;;;;;;;;;;;;;23.38;50.19;100092.63;5090089;28;19916;-76
2023/09/18 07:42:04;;;;;;;;;;;;;;;23.51;49.91;100096.03;5090105;28;19916;-76
2023/09/18 07:44:30;;;;;;;;;;;;;;;23.51;49.53;100096.03;5092604;28;19924;-76
2023/09/18 07:46:55;;;;;;;;;;;;;;;23.48;49.86;100099.22;5056455;28;19920;-74
2023/09/18 07:49:20;;;;;;;;;;;;;;;23.45;49.26;100100.53;5089399;28;20020;-76
2023/09/18 07:51:46;;;;;;;;;;;;;;;23.44;48.89;100097.00;5094053;28;19916;-73
2023/09/18 07:54:13;;;;;;;;;;;;;;;23.51;49.43;100093.31;5093362;28;20585;-77
2023/09/18 07:56:39;;;;;;;;;;;;;;;23.56;48.64;100101.50;5092424;28;19955;-76
2023/09/18 07:59:05;;;;;;;;;;;;;;;23.66;47.51;100090.84;5075674;28;19956;-77
2023/09/18 08:01:31;;;;;;;;;;;;;;;23.76;47.44;100096.38;5093666;28;19916;-77
2023/09/18 08:03:59;;;;;;;;;;;;;;;23.88;47.19;100090.88;5093947;28;19991;-77
2023/09/18 08:06:26;;;;;;;;;;;;;;;24.05;47.80;100084.34;5090961;28;20066;-76
2023/09/18 08:08:51;;;;;;;;;;;;;;;24.14;47.81;100086.59;5061323;28;20384;-76
2023/09/18 08:11:16;;;;;;;;;;;;;;;24.16;45.29;100081.75;5087468;28;20018;-74
2023/09/18 08:13:42;;;;;;;;;;;;;;;24.11;47.35;100084.38;5092408;28;19916;-78
2023/09/18 08:16:07;;;;;;;;;;;;;;;24.04;44.61;100079.19;5092511;28;20002;-77
2023/09/18 08:18:33;;;;;;;;;;;;;;;24.11;47.28;100076.28;5090767;28;19958;-74
2023/09/18 08:20:58;;;;;;;;;;;;;;;24.26;45.97;100085.38;5089192;28;19916;-75
2023/09/18 08:23:26;;;;;;;;;;;;;;;24.40;44.45;100083.09;5093293;28;19965;-75
2023/09/18 08:25:55;;;;;;;;;;;;;;;24.56;45.46;100063.28;5057011;28;19934;-77
2023/09/18 08:28:20;;;;;;;;;;;;;;;24.74;45.11;100080.19;5092353;28;19941;-76
2023/09/18 08:30:47;;;;;;;;;;;;;;;24.87;44.84;100069.75;5092750;28;20485;-76
2023/09/18 08:33:15;;;;;;;;;;;;;;;25.00;44.17;100074.72;5092538;28;20151;-76
2023/09/18 08:35:40;;;;;;;;;;;;;;;24.94;42.12;100067.63;5073741;28;20445;-76
2023/09/18 08:38:06;;;;;;;;;;;;;;;24.90;44.75;100076.53;5075394;28;20017;-77
2023/09/18 08:40:32;;;;;;;;;;;;;;;24.80;42.12;100062.94;5093232;28;19939;-76
2023/09/18 08:43:00;;;;;;;;;;;;;;;24.75;41.47;100052.91;5086474;28;19916;-74
2023/09/18 08:45:35;;;;;;;;;;;;;;;24.96;42.24;100051.16;5073504;28;20002;-76
2023/09/18 08:48:00;;;;;;;;;;;;;;;25.21;42.38;100056.75;5074001;28;19916;-77
2023/09/18 08:50:26;;;;;;;;;;;;;;;25.41;42.40;100060.69;5092061;28;19920;-75
2023/09/18 08:52:51;;;;;;;;;;;;;;;25.52;38.58;100056.94;5091651;28;19916;-74
2023/09/18 08:55:17;;;;;;;;;;;;;;;25.56;42.55;100056.16;5091788;28;19951;-76
2023/09/18 08:57:44;;;;;;;;;;;;;;;25.64;41.00;100052.13;5093090;28;20366;-74
2023/09/18 09:00:12;;;;;;;;;;;;;;;25.59;40.68;100049.41;5072140;28;19920;-75
2023/09/18 09:02:37;;;;;;;;;;;;;;;25.45;39.96;100045.56;5092734;28;19924;-75
2023/09/18 09:05:02;;;;;;;;;;;;;;;25.62;40.80;100040.75;5092464;28;20308;-75
2023/09/18 09:07:30;;;;;;;;;;;;;;;25.84;41.15;100046.00;5092639;28;19916;-75
2023/09/18 09:09:58;;;;;;;;;;;;;;;26.14;40.69;100037.16;5092850;28;19912;-77
2023/09/18 09:12:42;;;;;;;;;;;;;;;26.24;35.93;100042.59;5092860;28;19916;-75
2023/09/18 09:15:07;;;;;;;;;;;;;;;26.45;38.87;100035.31;5074143;28;19916;-75
2023/09/18 09:17:33;;;;;;;;;;;;;;;26.67;39.13;100035.84;5092645;28;19920;-75
2023/09/18 09:20:28;;;;;;;;;;;;;;;26.87;37.37;100029.63;5092925;28;19912;-76
2023/09/18 09:23:00;;;;;;;;;;;;;;;27.14;36.96;100030.16;5068871;28;19917;-75
2023/09/18 09:25:26;;;;;;;;;;;;;;;27.30;35.17;100028.19;5072771;28;19958;-74
2023/09/18 09:27:53;;;;;;;;;;;;;;;27.46;33.08;100028.94;5091324;28;19916;-77
2023/09/18 09:30:22;;;;;;;;;;;;;;;27.59;33.62;100028.38;5092482;28;20002;-76
2023/09/18 09:32:49;;;;;;;;;;;;;;;27.72;36.46;100014.22;5092501;28;20466;-76
2023/09/18 09:35:27;;;;;;;;;;;;;;;27.93;34.49;100011.41;5090975;28;20294;-76
2023/09/18 09:37:52;;;;;;;;;;;;;;;28.09;32.84;100004.78;5089163;28;19916;-76
2023/09/18 09:40:19;;;;;;;;;;;;;;;28.17;34.03;100013.13;5090985;28;20316;-76
2023/09/18 09:42:45;;;;;;;;;;;;;;;28.09;32.39;100002.06;5090122;28;19922;-77
2023/09/18 09:45:12;;;;;;;;;;;;;;;28.14;33.79;100007.44;5089220;28;20392;-75
2023/09/18 09:47:37;;;;;;;;;;;;;;;27.94;33.17;99999.44;5091490;28;20361;-74
2023/09/18 09:50:07;;;;;;;;;;;;;;;28.07;33.89;100002.34;5090217;28;19920;-76
2023/09/18 09:52:33;;;;;;;;;;;;;;;28.25;34.15;99987.34;5088431;28;19927;-75
2023/09/18 09:54:58;;;;;;;;;;;;;;;28.49;34.06;99995.56;5062052;28;19924;-74
2023/09/18 09:57:23;;;;;;;;;;;;;;;28.60;32.46;99999.78;5087102;28;19915;-76
2023/09/18 09:59:49;;;;;;;;;;;;;;;28.31;32.51;99994.34;5091834;28;19912;-76
2023/09/18 10:02:19;;;;;;;;;;;;;;;28.39;33.43;99982.06;5091302;28;19926;-76
2023/09/18 10:04:48;;;;;;;;;;;;;;;28.74;33.03;99999.94;5091193;28;19935;-76
2023/09/18 10:07:13;;;;;;;;;;;;;;;29.07;31.20;99982.78;5090338;28;20382;-76
2023/09/18 10:09:41;;;;;;;;;;;;;;;29.23;30.74;99983.41;5091933;28;19958;-76
2023/09/18 10:12:10;;;;;;;;;;;;;;;29.31;31.62;99990.13;5091787;28;20442;-76
2023/09/18 10:14:36;;;;;;;;;;;;;;;29.21;31.71;99988.31;5073475;28;19920;-77
2023/09/18 10:17:22;;;;;;;;;;;;;;;29.42;28.90;99972.56;5090934;28;19924;-75
2023/09/18 10:19:53;;;;;;;;;;;;;;;29.27;31.00;99981.72;5076274;28;19916;-75
2023/09/18 10:22:32;;;;;;;;;;;;;;;29.11;29.57;99985.72;5090037;28;19916;-76
2023/09/18 10:25:04;;;;;;;;;;;;;;;28.65;32.37;99990.78;5072785;28;19970;-76
2023/09/18 10:27:32;;;;;;;;;;;;;;;28.37;32.90;99984.25;5091181;28;19923;-76
2023/09/18 10:29:58;;;;;;;;;;;;;;;28.64;32.02;99975.59;5089026;28;20420;-74
2023/09/18 10:32:25;;;;;;;;;;;;;;;29.01;31.95;99973.06;5091257;28;19995;-77
2023/09/18 10:34:50;;;;;;;;;;;;;;;29.42;30.43;99970.66;5088602;28;19920;-77
2023/09/18 10:37:16;;;;;;;;;;;;;;;29.84;30.16;99969.03;5069742;28;19912;-77
2023/09/18 10:39:43;;;;;;;;;;;;;;;30.15;28.69;99963.13;5072596;28;19942;-75
2023/09/18 10:42:09;;;;;;;;;;;;;;;30.32;29.40;99961.47;5091061;28;19916;-74
2023/09/18 10:44:35;;;;;;;;;;;;;;;30.52;31.04;99956.81;5091355;28;20365;-76
2023/09/18 10:47:02;;;;;;;;;;;;;;;30.80;28.73;99965.84;5091379;28;19919;-76
2023/09/18 10:49:28;;;;;;;;;;;;;;;31.09;27.06;99960.09;5091210;28;19912;-77
2023/09/18 10:51:54;;;;;;;;;;;;;;;31.17;28.66;99952.03;5090994;28;20400;-76
2023/09/18 10:54:20;;;;;;;;;;;;;;;31.20;30.73;99942.44;5088225;28;19924;-74
2023/09/18 10:56:46;;;;;;;;;;;;;;;31.33;28.37;99946.28;5070004;28;19920;-75
2023/09/18 10:59:14;;;;;;;;;;;;;;;31.45;30.54;99947.38;5091907;28;20012;-76
2023/09/18 11:01:39;;;;;;;;;;;;;;;31.50;25.95;99950.00;5067271;28;19925;-74
2023/09/18 11:04:07;;;;;;;;;;;;;;;31.50;27.79;99951.91;5086366;28;20294;-75
2023/09/18 11:06:52;;;;;;;;;;;;;;;31.52;28.15;99946.97;5086833;28;19958;-75
2023/09/18 11:09:19;;;;;;;;;;;;;;;31.59;28.63;99942.69;5060849;28;19948;-74
2023/09/18 11:11:45;;;;;;;;;;;;;;;31.88;25.72;99941.50;5089104;28;19966;-74
2023/09/18 11:14:10;;;;;;;;;;;;;;;31.91;29.28;99932.69;5085453;28;19920;-77
2023/09/18 11:16:38;;;;;;;;;;;;;;;31.83;28.52;99931.53;5091316;28;19916;-74
2023/09/18 11:19:05;;;;;;;;;;;;;;;31.80;28.61;99934.06;5072520;28;19916;-75
2023/09/18 11:21:34;;;;;;;;;;;;;;;31.86;28.81;99935.56;5060525;28;20355;-76
2023/09/18 11:24:00;;;;;;;;;;;;;;;31.83;25.34;99930.72;5095040;28;19912;-76
2023/09/18 11:26:30;;;;;;;;;;;;;;;31.87;27.84;99927.06;5065319;28;20339;-76
2023/09/18 11:28:58;;;;;;;;;;;;;;;31.91;27.49;99927.25;5093236;28;19940;-77
2023/09/18 11:31:41;;;;;;;;;;;;;;;32.03;26.50;99919.31;5068469;28;19923;-75
2023/09/18 11:34:28;;;;;;;;;;;;;;;32.08;26.99;99915.66;5061260;28;19916;-77
2023/09/18 11:36:54;;;;;;;;;;;;;;;32.18;25.21;99910.75;5090497;28;19916;-77
2023/09/18 11:39:37;;;;;;;;;;;;;;;31.92;27.96;99917.94;5085228;28;19990;-75
2023/09/18 11:42:26;;;;;;;;;;;;;;;31.88;26.60;99912.28;5070336;28;19927;-77
2023/09/18 11:44:52;;;;;;;;;;;;;;;31.92;27.10;99909.72;5089523;28;19935;-75
2023/09/18 11:47:21;;;;;;;;;;;;;;;31.97;25.63;99909.63;5071680;28;19920;-76
2023/09/18 11:49:50;;;;;;;;;;;;;;;32.02;26.83;99901.31;5090316;28;20409;-76
2023/09/18 11:52:17;;;;;;;;;;;;;;;31.94;26.79;99902.03;5092458;28;19935;-76
2023/09/18 11:54:42;;;;;;;;;;;;;;;31.72;26.83;99905.56;5091771;28;19924;-76
2023/09/18 11:57:08;;;;;;;;;;;;;;;31.23;27.56;99912.66;5094132;28;20358;-76
2023/09/18 11:59:38;;;;;;;;;;;;;;;30.78;27.00;99906.19;5094297;28;20423;-75
2023/09/18 12:02:05;;;;;;;;;;;;;;;30.36;29.39;99918.09;5092124;28;19976;-76
2023/09/18 12:04:32;;;;;;;;;;;;;;;30.07;29.30;99915.59;5089430;28;19955;-76
2023/09/18 12:06:59;;;;;;;;;;;;;;;29.93;30.36;99906.56;5092891;28;19927;-76
2023/09/18 12:09:26;;;;;;;;;;;;;;;29.82;28.85;99895.03;5093023;28;20005;-76
2023/09/18 12:11:53;;;;;;;;;;;;;;;29.71;29.54;99897.06;5073661;28;20451;-76
2023/09/18 12:14:20;;;;;;;;;;;;;;;29.65;30.26;99890.09;5093711;28;20343;-76
2023/09/18 12:16:45;;;;;;;;;;;;;;;29.62;29.45;99885.22;5069035;28;19918;-76
2023/09/18 12:19:16;;;;;;;;;;;;;;;29.68;30.10;99894.94;5094172;28;19916;-76
2023/09/18 12:21:41;;;;;;;;;;;;;;;29.74;29.54;99892.97;5092243;28;19912;-76
2023/09/18 12:24:06;;;;;;;;;;;;;;;29.72;29.73;99889.72;5075983;28;20282;-76
2023/09/18 12:26:32;;;;;;;;;;;;;;;29.61;30.99;99889.06;5071659;28;19979;-76
2023/09/18 12:28:59;;;;;;;;;;;;;;;29.48;28.96;99892.53;5090961;28;19918;-76
2023/09/18 12:31:25;;;;;;;;;;;;;;;29.32;28.81;99886.47;5091355;28;19916;-75
2023/09/18 12:33:51;;;;;;;;;;;;;;;29.23;30.98;99881.97;5089705;28;20022;-77
2023/09/18 12:36:19;;;;;;;;;;;;;;;29.18;31.33;99873.88;5092912;28;19961;-75